Photometre #44[NE_1.6] Rome_La_Sapienza AOT

File : 20221127_44.hum

27/11/2022,07:11:03,TEMP=11.6,BA=5.68,STAT.A=7.0,ExtBa=13.36
27/11/2022,07:15:25,TEMP=11.9,BA=5.68,STAT.A=7.0,ExtBa=13.24
27/11/2022,07:20:35,TEMP=12.0,BA=5.68,STAT.A=7.0,ExtBa=13.25
27/11/2022,07:26:48,TEMP=12.2,BA=5.68,STAT.A=7.0,ExtBa=13.25
27/11/2022,07:34:25,TEMP=12.5,BA=5.68,STAT.A=7.0,ExtBa=13.30
27/11/2022,07:44:02,TEMP=13.0,BA=5.68,STAT.A=7.0,ExtBa=13.34
27/11/2022,07:56:36,TEMP=13.6,BA=5.68,STAT.B=7.0,ExtBa=13.36
27/11/2022,08:08:20,TEMP=13.8,BA=5.60,STAT.F,ExtBa=12.97
27/11/2022,08:26:35,TEMP=14.5,BA=5.56,STAT.D=7.0,ExtBa=13.04
27/11/2022,08:28:38,TEMP=14.6,BA=5.56,STAT.D=7.0,ExtBa=13.06
27/11/2022,08:42:47,TEMP=15.3,BA=5.68,STAT.D=7.0,ExtBa=13.35
27/11/2022,08:57:48,TEMP=15.9,BA=5.68,STAT.F,ExtBa=13.40
27/11/2022,09:15:26,TEMP=16.2,BA=5.56,STAT.D=7.0,ExtBa=13.04
27/11/2022,09:27:47,TEMP=16.8,BA=5.68,STAT.D=7.0,ExtBa=13.32
27/11/2022,09:42:47,TEMP=17.3,BA=5.68,STAT.D=7.0,ExtBa=13.40
27/11/2022,09:57:49,TEMP=17.6,BA=5.68,STAT.F,ExtBa=13.43
27/11/2022,10:15:20,TEMP=17.4,BA=5.56,STAT.D=7.0,ExtBa=13.04
27/11/2022,10:27:47,TEMP=17.7,BA=5.68,STAT.D=7.0,ExtBa=13.33
27/11/2022,10:42:47,TEMP=18.2,BA=5.68,STAT.D=7.0,ExtBa=13.41
27/11/2022,10:57:49,TEMP=18.4,BA=5.68,STAT.F,ExtBa=13.44
27/11/2022,11:15:20,TEMP=18.2,BA=5.52,STAT.D=8.0,ExtBa=13.03
27/11/2022,11:27:47,TEMP=18.7,BA=5.68,STAT.D=8.0,ExtBa=13.33
27/11/2022,11:42:47,TEMP=19.1,BA=5.68,STAT.D=7.0,ExtBa=13.41
27/11/2022,11:57:49,TEMP=19.3,BA=5.68,STAT.F,ExtBa=13.43
27/11/2022,12:15:15,TEMP=18.9,BA=5.52,STAT.D=8.0,ExtBa=13.03
27/11/2022,12:27:47,TEMP=19.1,BA=5.68,STAT.D=8.0,ExtBa=13.33
27/11/2022,12:42:47,TEMP=19.4,BA=5.68,STAT.D=8.0,ExtBa=13.41
27/11/2022,13:15:23,TEMP=19.4,BA=5.52,STAT.b=8.0
27/11/2022,13:27:46,TEMP=19.5,BA=5.68,STAT.D=8.0,ExtBa=13.33
27/11/2022,13:42:47,TEMP=19.6,BA=5.68,STAT.D=8.0,ExtBa=13.41
27/11/2022,13:57:48,TEMP=19.6,BA=5.68,STAT.F,ExtBa=13.43
27/11/2022,14:13:24,TEMP=18.8,BA=5.52,STAT.b=8.0
27/11/2022,14:14:17,TEMP=18.8,BA=5.52,STAT.B=8.0,ExtBa=13.05
27/11/2022,14:27:50,TEMP=18.3,BA=5.52,STAT.A=8.0,ExtBa=12.95
27/11/2022,14:29:57,TEMP=18.5,BA=5.52,STAT.A=7.0,ExtBa=12.98
27/11/2022,14:32:04,TEMP=18.5,BA=5.52,STAT.A=7.0,ExtBa=12.98
27/11/2022,14:35:01,TEMP=18.4,BA=5.52,STAT.A=7.0,ExtBa=13.04
27/11/2022,14:40:11,TEMP=18.2,BA=5.60,STAT.A=8.0,ExtBa=13.14
27/11/2022,14:44:33,TEMP=18.1,BA=5.60,STAT.A=7.0,ExtBa=13.18